Time;durP1;ratioP1;P1;durP2;ratioP2;P2;SDS_P1;SDS_P2;PMS_P1;PMS_P2;Temp;Humidity;BMP_temperature;BMP_pressure;BME280_temperature;BME280_humidity;BME280_pressure;Samples;Min_cycle;Max_cycle;Signal;HPM_P1;HPM_P2
2021/12/07 00:01:02;;;;;;;67.70;24.05;;;;;;;;;;5062546;28;20593;-67
2021/12/07 00:03:28;;;;;;;74.18;24.98;;;;;;;;;;5064285;28;20064;-66
2021/12/07 00:05:54;;;;;;;70.00;24.35;;;;;;;;;;5071316;28;20068;-66
2021/12/07 00:08:20;;;;;;;66.47;23.25;;;;;;;;;;5069473;28;20032;-66
2021/12/07 00:10:48;;;;;;;63.47;23.42;;;;;;;;;;5062218;28;20036;-66
2021/12/07 00:13:14;;;;;;;67.82;23.08;;;-0.40;99.90;;;;;;5065434;28;20028;-65
2021/12/07 00:15:40;;;;;;;66.13;23.70;;;;;;;;;;5063084;28;20078;-66
2021/12/07 00:18:06;;;;;;;63.72;23.80;;;;;;;;;;5070486;28;20797;-67
2021/12/07 00:20:32;;;;;;;63.25;24.23;;;;;;;;;;5062759;28;20033;-66
2021/12/07 00:22:58;;;;;;;65.72;23.35;;;;;;;;;;5064976;28;20027;-66
2021/12/07 00:25:24;;;;;;;67.93;23.70;;;;;;;;;;5063445;28;20036;-66
2021/12/07 00:27:50;;;;;;;63.65;23.02;;;;;;;;;;5062451;28;20024;-67
2021/12/07 00:30:16;;;;;;;62.67;22.85;;;;;;;;;;5071389;28;20144;-67
2021/12/07 00:32:48;;;;;;;61.97;22.10;;;;;;;;;;5061628;28;20036;-67
2021/12/07 00:37:59;;;;;;;59.15;22.45;;;;;;;;;;5030694;28;20059;-67
2021/12/07 00:40:25;;;;;;;59.70;21.98;;;;;;;;;;5037600;28;20626;-67
2021/12/07 00:42:51;;;;;;;57.30;21.52;;;;;;;;;;5036303;28;20811;-67
2021/12/07 00:45:20;;;;;;;58.17;22.33;;;;;;;;;;5030603;28;20029;-67
2021/12/07 00:47:46;;;;;;;57.45;21.83;;;;;;;;;;5027240;28;20025;-67
2021/12/07 00:50:12;;;;;;;53.25;20.65;;;;;;;;;;5024855;28;20759;-67
2021/12/07 00:52:38;;;;;;;55.13;21.85;;;;;;;;;;5025053;28;20037;-67
2021/12/07 00:55:04;;;;;;;56.97;20.42;;;;;;;;;;5026876;28;20025;-67
2021/12/07 00:57:30;;;;;;;56.83;21.45;;;;;;;;;;5023774;28;20705;-67
2021/12/07 00:59:56;;;;;;;55.20;21.35;;;;;;;;;;5029145;28;20030;-67
2021/12/07 01:02:22;;;;;;;54.30;21.17;;;;;;;;;;5024084;28;20744;-67
2021/12/07 01:04:55;;;;;;;46.75;19.23;;;;;;;;;;5024236;28;20026;-67
2021/12/07 01:07:51;;;;;;;48.92;19.88;;;;;;;;;;5020814;28;20036;-67
2021/12/07 01:26:38;;;;;;;51.88;19.50;;;;;;;;;;5027490;28;20136;-67
2021/12/07 01:29:05;;;;;;;49.65;19.80;;;;;;;;;;5025250;28;20120;-67
2021/12/07 01:31:43;;;;;;;53.95;19.38;;;;;;;;;;5023212;28;20044;-67
2021/12/07 01:47:49;;;;;;;43.85;17.85;;;;;;;;;;5056521;28;20902;-71
2021/12/07 01:50:32;;;;;;;45.60;19.35;;;;;;;;;;5049358;28;20099;-73
2021/12/07 02:00:47;;;;;;;46.03;18.17;;;;;;;;;;5014593;28;20029;-73
2021/12/07 02:03:13;;;;;;;49.58;19.98;;;;;;;;;;5027729;28;20084;-68
2021/12/07 02:05:40;;;;;;;46.25;18.52;;;;;;;;;;5024324;28;20967;-67
2021/12/07 02:08:06;;;;;;;45.72;18.63;;;;;;;;;;5029341;28;20629;-67
2021/12/07 02:10:33;;;;;;;46.33;19.00;;;;;;;;;;5025032;28;20037;-67
2021/12/07 02:13:07;;;;;;;46.67;18.75;;;;;;;;;;5032311;28;20033;-67
2021/12/07 02:15:33;;;;;;;51.45;19.38;;;;;;;;;;5025402;28;20116;-68
2021/12/07 02:17:59;;;;;;;51.03;19.35;;;;;;;;;;5022476;28;20068;-68
2021/12/07 02:20:25;;;;;;;49.50;20.20;;;;;;;;;;5022666;28;20108;-67
2021/12/07 02:22:51;;;;;;;45.17;18.38;;;;;;;;;;5020995;28;20736;-67
2021/12/07 02:25:19;;;;;;;53.03;20.48;;;;;;;;;;5024968;28;20025;-67
2021/12/07 02:27:45;;;;;;;52.25;20.88;;;;;;;;;;5023932;28;20060;-67
2021/12/07 02:30:12;;;;;;;55.58;20.45;;;;;;;;;;5031216;28;20037;-67
2021/12/07 02:32:37;;;;;;;49.45;18.40;;;;;;;;;;5024795;28;20029;-67
2021/12/07 02:35:04;;;;;;;49.35;19.38;;;;;;;;;;5024587;28;20040;-67
2021/12/07 02:37:31;;;;;;;48.40;19.35;;;;;;;;;;5028758;28;20028;-67
2021/12/07 02:39:57;;;;;;;53.10;19.88;;;;;;;;;;5026753;28;20033;-67
2021/12/07 02:42:23;;;;;;;50.25;19.58;;;;;;;;;;5022149;28;20013;-67
2021/12/07 02:44:49;;;;;;;50.05;19.35;;;;;;;;;;5026042;28;20110;-67
2021/12/07 02:47:15;;;;;;;55.85;21.00;;;;;;;;;;5022165;28;20545;-67
2021/12/07 02:49:41;;;;;;;50.95;19.80;;;;;;;;;;5026677;28;20036;-67
2021/12/07 02:52:07;;;;;;;54.00;19.60;;;;;;;;;;5028177;28;20025;-67
2021/12/07 02:54:36;;;;;;;47.38;17.90;;;;;;;;;;5022361;28;20771;-67
2021/12/07 02:57:05;;;;;;;47.20;19.55;;;;;;;;;;5023168;28;20120;-67
2021/12/07 02:59:32;;;;;;;51.53;18.90;;;;;;;;;;5021948;28;20959;-67
2021/12/07 03:02:03;;;;;;;48.40;19.20;;;;;;;;;;5037101;28;20021;-67
2021/12/07 03:04:36;;;;;;;52.35;19.70;;;;;;;;;;5025308;28;20030;-67
2021/12/07 03:07:20;;;;;;;48.20;19.75;;;;;;;;;;5022000;28;20045;-67
2021/12/07 03:25:50;;;;;;;48.08;18.83;;;;;;;;;;5026502;28;20029;-67
2021/12/07 03:26:29;;;;;;;50.63;19.33;;;;;;;;;;5025595;28;20038;-67
2021/12/07 03:28:59;;;;;;;54.22;20.05;;;;;;;;;;5023605;28;20817;-67
2021/12/07 03:31:26;;;;;;;51.10;20.08;;;;;;;;;;5026957;28;20056;-67
2021/12/07 03:33:53;;;;;;;52.55;19.42;;;;;;;;;;5019386;28;20059;-67
2021/12/07 03:36:20;;;;;;;47.08;19.05;;;;;;;;;;5023843;28;20036;-67
2021/12/07 03:38:47;;;;;;;54.72;20.27;;;;;;;;;;5021113;28;20378;-67
2021/12/07 03:41:13;;;;;;;53.88;20.70;;;;;;;;;;5032631;28;20035;-67
2021/12/07 03:43:39;;;;;;;51.88;20.90;;;;;;;;;;5021743;28;20520;-67
2021/12/07 03:46:05;;;;;;;53.83;19.48;;;;;;;;;;5019965;28;20029;-67
2021/12/07 03:48:31;;;;;;;47.72;19.83;;;;;;;;;;5026323;28;20040;-66
2021/12/07 03:50:57;;;;;;;52.97;20.70;;;;;;;;;;5025531;28;20086;-67
2021/12/07 03:53:24;;;;;;;52.60;19.38;;;;;;;;;;5020843;28;20087;-67
2021/12/07 03:55:50;;;;;;;49.88;19.65;;;;;;;;;;5027696;28;20075;-67
2021/12/07 03:58:16;;;;;;;52.30;19.92;;;;;;;;;;5020766;28;20552;-67
2021/12/07 04:00:42;;;;;;;59.60;21.35;;;;;;;;;;5028951;28;20030;-67
2021/12/07 04:03:11;;;;;;;52.75;20.90;;;;;;;;;;5029614;28;20057;-67
2021/12/07 04:05:44;;;;;;;53.08;20.65;;;;;;;;;;5005290;28;20067;-67
2021/12/07 04:08:11;;;;;;;51.55;19.33;;;;;;;;;;5024730;28;20032;-68
2021/12/07 04:10:37;;;;;;;49.97;19.40;;;;;;;;;;5021639;28;20123;-67
2021/12/07 04:13:03;;;;;;;55.80;19.70;;;;;;;;;;5029717;28;20048;-67
2021/12/07 04:15:29;;;;;;;57.10;19.88;;;;;;;;;;5034911;28;20409;-67
2021/12/07 04:17:56;;;;;;;54.47;20.33;;;;;;;;;;5026120;28;20029;-67
2021/12/07 04:20:22;;;;;;;51.38;19.45;;;;;;;;;;5011931;28;20095;-67
2021/12/07 04:22:48;;;;;;;62.33;22.50;;;;;;;;;;5035305;28;20041;-67
2021/12/07 04:25:14;;;;;;;57.80;20.98;;;;;;;;;;5040403;28;20370;-67
2021/12/07 04:27:40;;;;;;;61.20;19.65;;;;;;;;;;5027348;28;20025;-68
2021/12/07 04:30:06;;;;;;;66.05;21.63;;;;;;;;;;5026294;28;20037;-67
2021/12/07 04:32:32;;;;;;;60.50;21.60;;;;;;;;;;5030120;28;20532;-67
2021/12/07 04:34:57;;;;;;;64.20;22.80;;;;;;;;;;5038672;28;20722;-68
2021/12/07 04:37:23;;;;;;;58.20;20.90;;;;;;;;;;5027231;28;20041;-67
2021/12/07 04:39:49;;;;;;;60.67;22.75;;;;;;;;;;5033474;28;20034;-68
2021/12/07 04:42:16;;;;;;;65.63;23.90;;;;;;;;;;5019535;28;20029;-68
2021/12/07 04:44:50;;;;;;;53.53;22.02;;;;;;;;;;5030406;28;20041;-67
2021/12/07 04:47:24;;;;;;;65.38;23.95;;;;;;;;;;5028636;28;20675;-68
2021/12/07 04:57:51;;;;;;;57.40;21.03;;;;;;;;;;5023524;28;20044;-68
2021/12/07 05:00:17;;;;;;;62.80;22.75;;;;;;;;;;5030565;28;20710;-67
2021/12/07 05:02:46;;;;;;;61.65;22.67;;;;;;;;;;5032972;28;20075;-68
2021/12/07 05:05:15;;;;;;;64.38;22.88;;;;;;;;;;5040857;28;20439;-67
2021/12/07 05:07:47;;;;;;;60.65;23.50;;;;;;;;;;5027201;28;20033;-67
2021/12/07 05:10:30;;;;;;;66.13;23.23;;;;;;;;;;5026969;28;20038;-67
2021/12/07 05:18:18;;;;;;;60.80;23.30;;;;;;;;;;5025314;28;20091;-68
2021/12/07 05:39:58;;;;;;;60.83;22.25;;;;;;;;;;5026217;28;20053;-68
2021/12/07 05:42:24;;;;;;;63.08;22.38;;;;;;;;;;5032240;28;20397;-68
2021/12/07 05:44:50;;;;;;;68.57;23.25;;;;;;;;;;5035436;28;20060;-68
2021/12/07 05:47:16;;;;;;;64.50;22.38;;;;;;;;;;5030726;28;20107;-68
2021/12/07 05:49:42;;;;;;;64.28;22.15;;;;;;;;;;5026472;28;20111;-66
2021/12/07 05:52:08;;;;;;;68.60;23.35;;;;;;;;;;5030988;28;20029;-66
2021/12/07 05:54:34;;;;;;;61.20;22.67;;;;;;;;;;5029203;28;20039;-66
2021/12/07 05:57:00;;;;;;;64.32;23.33;;;;;;;;;;5033201;28;20021;-67
2021/12/07 05:59:26;;;;;;;59.33;22.40;;;;;;;;;;5024384;28;20906;-68
2021/12/07 06:01:52;;;;;;;61.17;22.42;;;;;;;;;;5025648;28;20026;-68
2021/12/07 06:04:18;;;;;;;67.18;23.17;;;;;;;;;;5031329;28;20029;-68
2021/12/07 06:06:44;;;;;;;62.25;22.13;;;;;;;;;;5030878;28;20387;-68
2021/12/07 06:09:10;;;;;;;61.90;23.25;;;;;;;;;;5021201;28;20026;-68
2021/12/07 06:11:36;;;;;;;61.30;23.90;;;;;;;;;;5026966;28;20144;-68
2021/12/07 06:14:02;;;;;;;69.03;24.55;;;;;;;;;;5034057;28;20035;-69
2021/12/07 06:16:30;;;;;;;67.72;22.75;;;;;;;;;;5031182;28;20866;-68
2021/12/07 06:18:56;;;;;;;65.38;23.48;;;;;;;;;;5024052;28;20037;-69
2021/12/07 06:21:22;;;;;;;62.70;23.45;;;;;;;;;;5026813;28;20029;-68
2021/12/07 06:23:48;;;;;;;61.63;23.17;;;;;;;;;;5031374;28;20036;-68
2021/12/07 06:26:14;;;;;;;73.15;24.13;;;;;;;;;;5025826;28;20040;-68
2021/12/07 06:28:40;;;;;;;67.60;23.70;;;;;;;;;;5028723;28;20034;-68
2021/12/07 06:31:06;;;;;;;71.15;24.95;;;;;;;;;;5027244;28;20184;-67
2021/12/07 06:33:32;;;;;;;67.95;24.00;;;;;;;;;;5035108;28;20033;-67
2021/12/07 06:35:59;;;;;;;73.28;25.60;;;;;;;;;;5025973;28;20037;-68
2021/12/07 06:38:25;;;;;;;62.55;23.92;;;;;;;;;;5026408;28;20148;-67
2021/12/07 06:40:51;;;;;;;63.33;23.88;;;;;;;;;;5022467;28;20109;-68
2021/12/07 06:43:17;;;;;;;61.22;23.73;;;;;;;;;;5026749;28;20662;-68
2021/12/07 06:45:43;;;;;;;65.55;24.25;;;;;;;;;;5029739;28;20037;-68
2021/12/07 06:48:09;;;;;;;64.32;24.08;;;;;;;;;;5022511;28;20053;-68
2021/12/07 06:50:35;;;;;;;66.93;24.60;;;;;;;;;;5025502;28;20048;-67
2021/12/07 06:53:01;;;;;;;62.53;23.73;;;;;;;;;;5027727;28;20045;-67
2021/12/07 06:55:27;;;;;;;66.35;23.15;;;;;;;;;;5031131;28;20072;-68
2021/12/07 06:57:53;;;;;;;62.35;23.23;;;;;;;;;;5023201;28;20396;-67
2021/12/07 07:00:19;;;;;;;59.97;22.75;;;;;;;;;;5025442;28;20036;-68
2021/12/07 07:02:45;;;;;;;68.32;24.75;;;;;;;;;;5034528;28;20052;-67
2021/12/07 07:05:11;;;;;;;61.05;22.80;;;;;;;;;;5031426;28;20025;-67
2021/12/07 07:07:37;;;;;;;67.35;24.25;;;;;;;;;;5033650;28;20512;-67
2021/12/07 07:10:03;;;;;;;57.22;22.58;;;;;;;;;;5024195;28;20090;-68
2021/12/07 07:12:29;;;;;;;64.07;23.92;;;;;;;;;;5027901;28;20044;-68
2021/12/07 07:14:55;;;;;;;66.15;24.13;;;;;;;;;;5027720;28;20393;-68
2021/12/07 07:17:21;;;;;;;65.72;22.73;;;;;;;;;;5030799;28;20033;-68
2021/12/07 07:19:47;;;;;;;58.92;23.13;;;;;;;;;;5021794;28;20103;-68
2021/12/07 07:22:13;;;;;;;63.70;24.08;;;;;;;;;;5027300;28;20120;-68
2021/12/07 07:24:42;;;;;;;61.60;23.25;;;;;;;;;;5027429;28;20037;-67
2021/12/07 07:27:08;;;;;;;60.08;23.40;;;;;;;;;;5025685;28;20022;-68
2021/12/07 07:29:34;;;;;;;58.08;22.60;;;;;;;;;;5022811;28;20059;-67
2021/12/07 07:32:00;;;;;;;59.10;23.88;;;;;;;;;;5027050;28;20032;-67
2021/12/07 07:34:26;;;;;;;60.15;23.60;;;;;;;;;;5026501;28;20025;-68
2021/12/07 07:36:52;;;;;;;58.08;23.80;;;;;;;;;;5022638;28;20048;-67
2021/12/07 07:39:18;;;;;;;60.13;22.90;;;;;;;;;;5027103;28;20763;-68
2021/12/07 07:41:44;;;;;;;60.85;23.63;;;;;;;;;;5021861;28;20053;-67
2021/12/07 07:44:10;;;;;;;69.28;24.95;;;;;;;;;;5028550;28;20032;-67
2021/12/07 07:46:44;;;;;;;57.03;22.50;;;;;;;;;;5026556;28;20036;-75
2021/12/07 07:49:10;;;;;;;57.08;22.85;;;;;;;;;;5025095;28;20045;-75
2021/12/07 07:51:35;;;;;;;70.32;25.08;;;-0.90;99.90;;;;;;5021844;28;20473;-66
2021/12/07 07:54:01;;;;;;;62.53;23.30;;;;;;;;;;5026279;28;20026;-67
2021/12/07 07:56:27;;;;;;;58.00;22.08;;;;;;;;;;5028974;28;20420;-67
2021/12/07 07:58:54;;;;;;;60.47;23.52;;;;;;;;;;5026469;28;20160;-67
2021/12/07 08:01:20;;;;;;;67.88;24.00;;;;;;;;;;5023530;28;20017;-68
2021/12/07 08:03:46;;;;;;;58.70;23.20;;;;;;;;;;5021639;28;20075;-68
2021/12/07 08:06:12;;;;;;;61.03;22.38;;;;;;;;;;5025701;28;20116;-67
2021/12/07 08:08:38;;;;;;;57.75;23.42;;;;;;;;;;5024654;28;20036;-67
2021/12/07 08:11:04;;;;;;;58.05;22.52;;;;;;;;;;5022469;28;20033;-67
2021/12/07 08:13:31;;;;;;;61.38;22.08;;;;;;;;;;5021284;28;20041;-68
2021/12/07 08:15:57;;;;;;;56.88;22.00;;;;;;;;;;5027458;28;20112;-68
2021/12/07 08:18:23;;;;;;;55.00;21.65;;;;;;;;;;5022656;28;20490;-65
2021/12/07 08:20:49;;;;;;;58.05;22.85;;;;;;;;;;5019404;28;20025;-65
2021/12/07 08:23:15;;;;;;;59.30;22.67;;;;;;;;;;5023706;28;20596;-67
2021/12/07 08:25:41;;;;;;;60.17;23.13;;;;;;;;;;5027342;28;20547;-74
2021/12/07 08:28:07;;;;;;;57.20;22.30;;;;;;;;;;5021367;28;20499;-76
2021/12/07 08:30:33;;;;;;;57.70;23.05;;;;;;;;;;5021438;28;20045;-65
2021/12/07 08:32:59;;;;;;;60.63;23.88;;;;;;;;;;5025672;28;20092;-65
2021/12/07 08:35:25;;;;;;;55.88;22.05;;;;;;;;;;5022858;28;20039;-67
2021/12/07 08:37:51;;;;;;;60.17;22.58;;;;;;;;;;5009614;28;20036;-65
2021/12/07 08:40:17;;;;;;;51.88;23.38;;;;;;;;;;5026612;28;20071;-65
2021/12/07 08:42:43;;;;;;;54.67;22.25;;;;;;;;;;5019309;28;20811;-65
2021/12/07 08:45:09;;;;;;;57.95;22.58;;;;;;;;;;5024644;28;20124;-65
2021/12/07 08:47:35;;;;;;;54.78;21.58;;;;;;;;;;5018322;28;20490;-65
2021/12/07 08:50:01;;;;;;;53.92;21.65;;;;;;;;;;5018004;28;20720;-65
2021/12/07 08:52:27;;;;;;;58.47;22.00;;;;;;;;;;5021362;28;20040;-65
2021/12/07 09:00:03;;;;;;;53.70;21.35;;;;;;;;;;5023024;28;20029;-65
2021/12/07 09:02:29;;;;;;;49.22;20.38;;;;;;;;;;5025974;28;20067;-65
2021/12/07 09:04:55;;;;;;;54.28;21.67;;;;;;;;;;5024693;28;20033;-65
2021/12/07 09:07:21;;;;;;;57.05;21.42;;;;;;;;;;5032789;28;20038;-65
2021/12/07 09:09:47;;;;;;;47.42;20.23;;;;;;;;;;5024910;28;20115;-65
2021/12/07 09:12:13;;;;;;;52.03;22.65;;;;;;;;;;5020335;28;20393;-65
2021/12/07 09:14:41;;;;;;;52.40;21.35;;;;;;;;;;5025759;28;20040;-65
2021/12/07 09:17:08;;;;;;;56.95;23.27;;;;;;;;;;5019956;28;20033;-66
2021/12/07 09:19:34;;;;;;;51.45;21.67;;;;;;;;;;5021463;28;20603;-65
2021/12/07 09:22:00;;;;;;;49.67;20.90;;;;;;;;;;5025204;28;20036;-65
2021/12/07 09:24:26;;;;;;;50.22;21.25;;;;;;;;;;5024507;28;20034;-65
2021/12/07 09:26:52;;;;;;;48.47;21.80;;;;;;;;;;5026422;28;20026;-66
2021/12/07 09:29:18;;;;;;;53.13;20.98;;;;;;;;;;5035029;28;20037;-65
2021/12/07 09:31:44;;;;;;;50.97;21.33;;;;;;;;;;5022028;28;20030;-65
2021/12/07 09:34:11;;;;;;;52.78;21.45;;;;;;;;;;5024622;28;20040;-65
2021/12/07 09:36:37;;;;;;;54.08;21.67;;;;;;;;;;5022974;28;20073;-65
2021/12/07 09:39:03;;;;;;;49.63;20.90;;;;;;;;;;5025759;28;20147;-65
2021/12/07 09:41:29;;;;;;;46.88;20.52;;;;;;;;;;5023520;28;20033;-65
2021/12/07 09:43:55;;;;;;;57.97;21.77;;;;;;;;;;5024520;28;20072;-66
2021/12/07 09:46:21;;;;;;;56.85;22.90;;;;;;;;;;5021646;28;20055;-66
2021/12/07 09:48:47;;;;;;;49.25;20.77;;;;;;;;;;5028756;28;20386;-66
2021/12/07 09:51:13;;;;;;;52.10;21.00;;;;;;;;;;5028045;28;20026;-66
2021/12/07 09:53:39;;;;;;;56.00;21.35;;;;;;;;;;5025599;28;20038;-66
2021/12/07 09:56:05;;;;;;;54.28;22.05;;;;;;;;;;5026090;28;20479;-66
2021/12/07 09:58:31;;;;;;;55.40;22.40;;;;;;;;;;5028199;28;20043;-67
2021/12/07 10:00:57;;;;;;;55.60;22.73;;;;;;;;;;5019628;28;20029;-66
2021/12/07 10:03:23;;;;;;;56.97;23.58;;;;;;;;;;5023838;28;20037;-66
2021/12/07 10:05:49;;;;;;;56.63;22.73;;;;;;;;;;5028002;28;20025;-68
2021/12/07 10:08:15;;;;;;;54.20;21.25;;;;;;;;;;5030871;28;20446;-66
2021/12/07 10:10:41;;;;;;;59.30;23.88;;;;;;;;;;5031831;28;20062;-66
2021/12/07 10:13:07;;;;;;;51.05;22.02;;;;;;;;;;5025798;28;20029;-66
2021/12/07 10:15:33;;;;;;;50.67;21.50;;;;;;;;;;5023217;28;20136;-66
2021/12/07 10:17:59;;;;;;;52.88;23.55;;;;;;;;;;5025230;28;20033;-66
2021/12/07 10:20:25;;;;;;;53.45;23.27;;;;;;;;;;5021847;28;20041;-66
2021/12/07 10:22:51;;;;;;;55.00;23.00;;;;;;;;;;5022570;28;20033;-66
2021/12/07 10:25:17;;;;;;;54.70;22.13;;;;;;;;;;5025052;28;20040;-66
2021/12/07 10:27:43;;;;;;;54.58;22.33;;;;;;;;;;5025947;28;20029;-66
2021/12/07 10:30:09;;;;;;;54.28;23.08;;;;;;;;;;5028173;28;20032;-66
2021/12/07 10:32:35;;;;;;;57.42;23.48;;;;;;;;;;5023891;28;20044;-66
2021/12/07 10:35:01;;;;;;;59.08;23.30;;;;;;;;;;5021843;28;20619;-66
2021/12/07 10:37:27;;;;;;;56.17;22.63;;;;;;;;;;5029004;28;20817;-66
2021/12/07 10:39:55;;;;;;;58.40;22.30;;;;;;;;;;5014482;28;20059;-66
2021/12/07 10:42:21;;;;;;;52.67;22.05;;;;;;;;;;5027839;28;20029;-66
2021/12/07 10:44:47;;;;;;;57.70;23.17;;;;;;;;;;5024007;28;20029;-66
2021/12/07 10:47:13;;;;;;;52.08;22.73;;;;;;;;;;5022264;28;20397;-66
2021/12/07 10:49:39;;;;;;;57.58;23.33;;;;;;;;;;5023541;28;20478;-66
2021/12/07 10:52:05;;;;;;;58.42;22.67;;;;;;;;;;5024731;28;20090;-66
2021/12/07 10:54:31;;;;;;;59.00;22.45;;;;;;;;;;5024152;28;20899;-66
2021/12/07 10:56:57;;;;;;;55.20;22.23;;;;;;;;;;5024450;28;20065;-66
2021/12/07 10:59:23;;;;;;;54.17;22.35;;;;;;;;;;5021506;28;20056;-66
2021/12/07 11:01:49;;;;;;;58.92;24.13;;;;;;;;;;5021665;28;20033;-66
2021/12/07 11:04:15;;;;;;;59.08;23.98;;;;;;;;;;5024250;28;20095;-66
2021/12/07 11:06:41;;;;;;;54.90;23.33;;;;;;;;;;5024475;28;20037;-66
2021/12/07 11:09:07;;;;;;;57.00;23.20;;;;;;;;;;5024474;28;20036;-66
2021/12/07 11:11:33;;;;;;;53.33;24.00;;;0.50;99.90;;;;;;5023886;28;20489;-66
2021/12/07 11:13:59;;;;;;;60.83;24.45;;;;;;;;;;5024181;28;20037;-67
2021/12/07 11:16:25;;;;;;;55.92;23.42;;;;;;;;;;5024035;28;20037;-66
2021/12/07 11:18:54;;;;;;;59.88;24.33;;;;;;;;;;5024206;28;20025;-66
2021/12/07 11:21:20;;;;;;;60.00;22.52;;;;;;;;;;5022332;28;20029;-66
2021/12/07 11:23:46;;;;;;;61.83;24.35;;;;;;;;;;5021696;28;20029;-66
2021/12/07 11:31:23;;;;;;;55.40;22.45;;;;;;;;;;5021568;28;20041;-66
2021/12/07 11:33:49;;;;;;;56.25;22.75;;;;;;;;;;5019530;28;20026;-66
2021/12/07 11:36:14;;;;;;;52.40;21.48;;;0.60;99.90;;;;;;5020817;28;20044;-66
2021/12/07 11:38:40;;;;;;;52.92;22.23;;;;;;;;;;5023305;28;20037;-69
2021/12/07 11:41:06;;;;;;;54.65;21.88;;;;;;;;;;5023590;28;20582;-69
2021/12/07 11:43:32;;;;;;;53.38;22.60;;;;;;;;;;5023682;28;20036;-69
2021/12/07 11:45:58;;;;;;;53.10;22.90;;;;;;;;;;5023491;28;20025;-69
2021/12/07 11:48:24;;;;;;;53.65;22.55;;;;;;;;;;5022210;28;20120;-69
2021/12/07 11:50:50;;;;;;;51.05;22.05;;;;;;;;;;5021239;28;20044;-69
2021/12/07 11:53:16;;;;;;;56.70;22.60;;;;;;;;;;5023197;28;20041;-69
2021/12/07 11:55:42;;;;;;;51.75;22.23;;;;;;;;;;5023870;28;20501;-69
2021/12/07 11:58:08;;;;;;;49.72;21.95;;;;;;;;;;5023321;28;20041;-69
2021/12/07 12:00:35;;;;;;;44.95;20.75;;;;;;;;;;5023114;28;20476;-69
2021/12/07 12:03:01;;;;;;;47.88;21.02;;;;;;;;;;5019560;28;20033;-69
2021/12/07 12:05:27;;;;;;;46.03;20.00;;;;;;;;;;5022421;28;20397;-69
2021/12/07 12:07:53;;;;;;;47.83;21.38;;;;;;;;;;5018822;28;20030;-69
2021/12/07 12:10:20;;;;;;;49.40;20.92;;;;;;;;;;5023356;28;20041;-69
2021/12/07 12:12:46;;;;;;;45.63;20.17;;;;;;;;;;5023248;28;20048;-69
2021/12/07 12:15:12;;;;;;;50.47;20.90;;;;;;;;;;5021312;28;20030;-66
2021/12/07 12:17:38;;;;;;;53.72;22.15;;;;;;;;;;5023236;28;20052;-66
2021/12/07 12:20:04;;;;;;;46.78;20.48;;;;;;;;;;5021482;28;20029;-69
2021/12/07 12:22:31;;;;;;;45.97;18.88;;;;;;;;;;5021003;28;20052;-70
2021/12/07 12:24:57;;;;;;;47.38;20.27;;;;;;;;;;5020292;28;20695;-69
2021/12/07 12:27:24;;;;;;;47.47;20.88;;;;;;;;;;5023242;28;20060;-70
2021/12/07 12:29:50;;;;;;;48.28;20.63;;;;;;;;;;5019841;28;20040;-69
2021/12/07 12:32:16;;;;;;;46.30;19.92;;;;;;;;;;5021132;28;20045;-69
2021/12/07 12:34:42;;;;;;;47.50;21.90;;;;;;;;;;5025137;28;20601;-69
2021/12/07 12:37:08;;;;;;;52.08;20.27;;;;;;;;;;5023518;28;20029;-69
2021/12/07 12:39:34;;;;;;;48.72;21.15;;;;;;;;;;5026930;28;20176;-69
2021/12/07 12:42:00;;;;;;;48.90;20.77;;;;;;;;;;5020843;28;20037;-70
2021/12/07 12:44:27;;;;;;;47.78;19.98;;;;;;;;;;5031919;28;20757;-70
2021/12/07 12:46:53;;;;;;;43.97;19.45;;;;;;;;;;5014197;28;20026;-70
2021/12/07 12:49:19;;;;;;;47.70;20.80;;;;;;;;;;5029246;28;20039;-69
2021/12/07 12:51:44;;;;;;;50.90;21.50;;;0.30;99.90;;;;;;5025700;28;20423;-70
2021/12/07 12:54:10;;;;;;;47.80;20.90;;;;;;;;;;5025519;28;20117;-69
2021/12/07 12:56:37;;;;;;;50.28;20.45;;;;;;;;;;5027615;28;20033;-69
2021/12/07 12:59:03;;;;;;;53.30;22.17;;;;;;;;;;5031083;28;20041;-69
2021/12/07 13:01:29;;;;;;;50.65;20.95;;;;;;;;;;5035693;28;20086;-70
2021/12/07 13:03:55;;;;;;;48.58;21.40;;;;;;;;;;5025175;28;20033;-69
2021/12/07 13:06:21;;;;;;;51.65;21.55;;;;;;;;;;5027939;28;20116;-70
2021/12/07 13:08:47;;;;;;;49.72;20.80;;;;;;;;;;5027484;28;20101;-70
2021/12/07 13:11:13;;;;;;;54.55;20.63;;;;;;;;;;5028951;28;20044;-69
2021/12/07 13:13:39;;;;;;;46.78;21.38;;;;;;;;;;5021351;28;20057;-69
2021/12/07 13:16:05;;;;;;;48.15;19.73;;;;;;;;;;5026198;28;20480;-69
2021/12/07 13:18:32;;;;;;;48.30;19.65;;;;;;;;;;5029214;28;20458;-69
2021/12/07 13:20:58;;;;;;;49.05;21.13;;;;;;;;;;5033447;28;20103;-70
2021/12/07 13:23:28;;;;;;;49.55;21.38;;;0.90;99.90;;;;;;5027492;28;20029;-70
2021/12/07 13:25:54;;;;;;;45.90;19.88;;;;;;;;;;5028986;28;20048;-70
2021/12/07 13:28:22;;;;;;;47.83;20.55;;;;;;;;;;5025940;28;20489;-69
2021/12/07 13:30:49;;;;;;;42.08;19.00;;;;;;;;;;5027391;28;20037;-70
2021/12/07 13:33:15;;;;;;;44.58;18.50;;;;;;;;;;5025665;28;20034;-70
2021/12/07 13:35:41;;;;;;;46.33;20.45;;;;;;;;;;5027206;28;20413;-69
2021/12/07 13:38:07;;;;;;;67.03;26.63;;;;;;;;;;5028980;28;20026;-69
2021/12/07 13:40:33;;;;;;;41.03;19.35;;;;;;;;;;5025065;28;20519;-70
2021/12/07 13:42:58;;;;;;;49.60;20.38;;;;;;;;;;5025603;28;20033;-69
2021/12/07 13:45:24;;;;;;;50.03;21.08;;;;;;;;;;5026395;28;20120;-69
2021/12/07 13:47:50;;;;;;;48.13;20.30;;;;;;;;;;5009246;28;20040;-69
2021/12/07 13:50:16;;;;;;;43.70;19.35;;;;;;;;;;5029819;28;20061;-70
2021/12/07 13:52:43;;;;;;;45.80;19.08;;;;;;;;;;5025379;28;20482;-69
2021/12/07 13:55:09;;;;;;;47.50;19.05;;;;;;;;;;5027741;28;20756;-69
2021/12/07 13:57:35;;;;;;;47.20;20.35;;;;;;;;;;5030885;28;20512;-69
2021/12/07 14:00:01;;;;;;;51.78;20.83;;;;;;;;;;5024379;28;20040;-70
2021/12/07 14:02:37;;;;;;;64.05;22.67;;;;;;;;;;5033319;28;20112;-70
2021/12/07 14:05:03;;;;;;;45.38;18.95;;;;;;;;;;5025600;28;20112;-69
2021/12/07 14:07:29;;;;;;;45.72;19.92;;;;;;;;;;5024686;28;20055;-69
2021/12/07 14:09:55;;;;;;;48.78;19.50;;;;;;;;;;5027994;28;20069;-69
2021/12/07 14:12:21;;;;;;;45.72;19.55;;;;;;;;;;5025649;28;20083;-69
2021/12/07 14:14:47;;;;;;;49.17;20.40;;;;;;;;;;5032092;28;20036;-69
2021/12/07 14:17:13;;;;;;;54.80;22.88;;;;;;;;;;5021584;28;20029;-69
2021/12/07 14:19:39;;;;;;;46.72;19.33;;;;;;;;;;5026126;28;20033;-69
2021/12/07 14:22:05;;;;;;;49.53;19.55;;;;;;;;;;5025282;28;20064;-69
2021/12/07 14:24:31;;;;;;;49.08;20.25;;;;;;;;;;5022233;28;20029;-69
2021/12/07 14:26:57;;;;;;;44.05;19.85;;;;;;;;;;5034990;28;20083;-69
2021/12/07 14:29:23;;;;;;;43.20;18.48;;;;;;;;;;5023832;28;20547;-69
2021/12/07 14:31:49;;;;;;;49.90;19.80;;;;;;;;;;5030079;28;20032;-69
2021/12/07 14:34:15;;;;;;;51.72;21.48;;;;;;;;;;5028441;28;20040;-69
2021/12/07 14:36:41;;;;;;;52.33;23.15;;;;;;;;;;5027455;28;20040;-69
2021/12/07 14:39:07;;;;;;;49.05;19.67;;;;;;;;;;5029727;28;20041;-69
2021/12/07 14:41:33;;;;;;;48.72;20.80;;;;;;;;;;5025823;28;20051;-69
2021/12/07 14:43:59;;;;;;;48.35;18.63;;;;;;;;;;5025581;28;20036;-69
2021/12/07 14:46:25;;;;;;;49.15;19.75;;;;;;;;;;5008768;28;20585;-69
2021/12/07 14:48:51;;;;;;;51.15;20.95;;;;;;;;;;5029971;28;20029;-69
2021/12/07 14:51:17;;;;;;;49.00;21.00;;;;;;;;;;5035031;28;20033;-69
2021/12/07 14:53:44;;;;;;;45.25;20.67;;;;;;;;;;5024358;28;20036;-69
2021/12/07 14:56:10;;;;;;;55.88;22.55;;;;;;;;;;5025448;28;20038;-69
2021/12/07 14:58:36;;;;;;;58.60;20.77;;;;;;;;;;5029211;28;20041;-69
2021/12/07 15:01:02;;;;;;;60.03;26.00;;;;;;;;;;5029087;28;20037;-69
2021/12/07 15:03:28;;;;;;;60.65;24.38;;;;;;;;;;5030706;28;20112;-69
2021/12/07 15:05:54;;;;;;;53.92;20.88;;;;;;;;;;5022980;28;20831;-69
2021/12/07 15:08:20;;;;;;;48.65;21.25;;;;;;;;;;5028261;28;20033;-70
2021/12/07 15:10:46;;;;;;;44.05;18.98;;;;;;;;;;5025621;28;20052;-69
2021/12/07 15:13:12;;;;;;;51.63;21.17;;;;;;;;;;5030475;28;20045;-69
2021/12/07 15:15:38;;;;;;;48.55;21.75;;;;;;;;;;5030768;28;20120;-69
2021/12/07 15:18:04;;;;;;;56.83;20.55;;;;;;;;;;5026065;28;20128;-69
2021/12/07 15:20:30;;;;;;;54.80;21.70;;;;;;;;;;5027211;28;20709;-69
2021/12/07 15:22:56;;;;;;;53.05;21.20;;;;;;;;;;5023342;28;20031;-69
2021/12/07 15:25:22;;;;;;;54.85;20.92;;;;;;;;;;5027568;28;20060;-69
2021/12/07 15:27:48;;;;;;;50.17;21.42;;;;;;;;;;5020912;28;20034;-69
2021/12/07 15:30:14;;;;;;;54.90;21.67;;;;;;;;;;5023020;28;20025;-69
2021/12/07 15:32:40;;;;;;;54.30;21.25;;;;;;;;;;5025087;28;20409;-69
2021/12/07 15:35:06;;;;;;;55.13;20.92;;;;;;;;;;5029159;28;20036;-69
2021/12/07 15:37:33;;;;;;;54.78;20.70;;;;;;;;;;5024067;28;20029;-69
2021/12/07 15:39:58;;;;;;;50.97;21.42;;;;;;;;;;5022918;28;20460;-69
2021/12/07 15:42:24;;;;;;;49.25;20.33;;;;;;;;;;5022883;28;20123;-69
2021/12/07 15:44:54;;;;;;;49.72;21.05;;;;;;;;;;5026847;28;20139;-71
2021/12/07 15:47:20;;;;;;;52.28;22.00;;;;;;;;;;5026479;28;20099;-69
2021/12/07 15:49:45;;;;;;;54.78;22.13;;;;;;;;;;5027982;28;20037;-69